sensor_id;sensor_type;location;lat;lon;timestamp;noise_LAeq;noise_LA_min;noise_LA_max;noise_LA01;noise_LA95
63692;Laerm;49838;51.798;10.954;2022-12-18T00:01:56;33.11;28.79;44.03;;
63692;Laerm;49838;51.798;10.954;2022-12-18T00:04:25;32.71;28.39;44.63;;
63692;Laerm;49838;51.798;10.954;2022-12-18T00:06:53;32.35;28.66;40.85;;
63692;Laerm;49838;51.798;10.954;2022-12-18T00:09:20;32.09;29.17;39.40;;
63692;Laerm;49838;51.798;10.954;2022-12-18T00:11:48;32.76;29.18;44.25;;
63692;Laerm;49838;51.798;10.954;2022-12-18T00:14:15;36.07;29.12;59.42;;
63692;Laerm;49838;51.798;10.954;2022-12-18T00:16:45;31.59;28.38;42.19;;
63692;Laerm;49838;51.798;10.954;2022-12-18T00:19:13;31.88;28.58;39.77;;
63692;Laerm;49838;51.798;10.954;2022-12-18T00:21:42;32.87;28.89;42.48;;
63692;Laerm;49838;51.798;10.954;2022-12-18T00:24:10;35.68;29.85;49.66;;
63692;Laerm;49838;51.798;10.954;2022-12-18T00:26:38;33.62;29.55;46.67;;
63692;Laerm;49838;51.798;10.954;2022-12-18T00:29:07;37.59;29.67;56.63;;
63692;Laerm;49838;51.798;10.954;2022-12-18T00:31:35;32.23;28.05;45.02;;
63692;Laerm;49838;51.798;10.954;2022-12-18T00:34:05;30.44;27.91;43.25;;
63692;Laerm;49838;51.798;10.954;2022-12-18T00:36:34;32.64;28.33;51.01;;
63692;Laerm;49838;51.798;10.954;2022-12-18T00:39:03;30.93;28.30;37.10;;
63692;Laerm;49838;51.798;10.954;2022-12-18T00:41:32;31.68;28.83;40.16;;
63692;Laerm;49838;51.798;10.954;2022-12-18T00:44:17;33.83;28.87;46.79;;
63692;Laerm;49838;51.798;10.954;2022-12-18T00:46:46;30.95;27.89;45.40;;
63692;Laerm;49838;51.798;10.954;2022-12-18T00:49:16;32.47;28.69;48.86;;
63692;Laerm;49838;51.798;10.954;2022-12-18T00:51:44;32.68;28.73;50.07;;
63692;Laerm;49838;51.798;10.954;2022-12-18T00:54:12;32.66;28.59;50.61;;
63692;Laerm;49838;51.798;10.954;2022-12-18T00:56:39;31.38;28.29;44.11;;
63692;Laerm;49838;51.798;10.954;2022-12-18T00:59:07;32.24;28.02;45.27;;
63692;Laerm;49838;51.798;10.954;2022-12-18T01:01:34;34.03;28.31;47.88;;
63692;Laerm;49838;51.798;10.954;2022-12-18T01:04:02;37.50;28.97;59.66;;
63692;Laerm;49838;51.798;10.954;2022-12-18T01:06:31;54.38;28.71;73.64;;
63692;Laerm;49838;51.798;10.954;2022-12-18T01:08:59;31.89;29.24;37.41;;
63692;Laerm;49838;51.798;10.954;2022-12-18T01:11:26;31.46;29.02;36.96;;
63692;Laerm;49838;51.798;10.954;2022-12-18T01:13:54;31.84;28.53;45.08;;
63692;Laerm;49838;51.798;10.954;2022-12-18T01:16:22;30.22;28.21;47.36;;
63692;Laerm;49838;51.798;10.954;2022-12-18T01:18:51;30.24;28.28;35.09;;
63692;Laerm;49838;51.798;10.954;2022-12-18T01:21:20;30.34;28.39;47.73;;
63692;Laerm;49838;51.798;10.954;2022-12-18T01:23:52;30.63;28.72;40.13;;
63692;Laerm;49838;51.798;10.954;2022-12-18T01:26:20;31.86;28.39;48.46;;
63692;Laerm;49838;51.798;10.954;2022-12-18T01:28:47;32.60;28.28;50.31;;
63692;Laerm;49838;51.798;10.954;2022-12-18T01:31:17;53.77;29.13;74.02;;
63692;Laerm;49838;51.798;10.954;2022-12-18T01:33:45;30.34;28.27;44.91;;
63692;Laerm;49838;51.798;10.954;2022-12-18T01:36:17;30.89;28.56;35.30;;
63692;Laerm;49838;51.798;10.954;2022-12-18T01:38:45;31.31;28.67;40.29;;
63692;Laerm;49838;51.798;10.954;2022-12-18T01:41:15;30.82;28.81;36.72;;
63692;Laerm;49838;51.798;10.954;2022-12-18T01:43:47;29.90;27.71;35.80;;
63692;Laerm;49838;51.798;10.954;2022-12-18T01:46:16;30.28;27.91;37.01;;
63692;Laerm;49838;51.798;10.954;2022-12-18T01:48:47;30.58;27.93;47.40;;
63692;Laerm;49838;51.798;10.954;2022-12-18T01:51:16;29.86;28.07;42.81;;
63692;Laerm;49838;51.798;10.954;2022-12-18T01:53:45;30.43;28.00;37.63;;
63692;Laerm;49838;51.798;10.954;2022-12-18T01:56:17;31.93;28.46;43.86;;
63692;Laerm;49838;51.798;10.954;2022-12-18T01:58:54;29.85;28.08;39.00;;
63692;Laerm;49838;51.798;10.954;2022-12-18T02:01:24;30.59;28.43;35.55;;
63692;Laerm;49838;51.798;10.954;2022-12-18T02:03:52;30.02;28.28;43.65;;
63692;Laerm;49838;51.798;10.954;2022-12-18T02:06:23;46.73;28.73;62.23;;
63692;Laerm;49838;51.798;10.954;2022-12-18T02:09:03;30.73;28.46;37.07;;
63692;Laerm;49838;51.798;10.954;2022-12-18T02:11:42;30.30;28.32;35.41;;
63692;Laerm;49838;51.798;10.954;2022-12-18T02:14:21;29.82;28.15;40.20;;
63692;Laerm;49838;51.798;10.954;2022-12-18T02:16:53;30.94;28.23;40.03;;
63692;Laerm;49838;51.798;10.954;2022-12-18T02:19:38;30.04;27.85;45.67;;
63692;Laerm;49838;51.798;10.954;2022-12-18T02:22:19;30.42;28.29;36.77;;
63692;Laerm;49838;51.798;10.954;2022-12-18T02:24:58;30.52;28.42;38.47;;
63692;Laerm;49838;51.798;10.954;2022-12-18T02:27:29;30.27;28.29;38.68;;
63692;Laerm;49838;51.798;10.954;2022-12-18T02:30:01;29.75;28.10;33.67;;
63692;Laerm;49838;51.798;10.954;2022-12-18T02:32:33;30.66;28.32;39.72;;
63692;Laerm;49838;51.798;10.954;2022-12-18T02:35:04;33.15;28.24;55.08;;
63692;Laerm;49838;51.798;10.954;2022-12-18T02:37:34;31.41;29.05;36.49;;
63692;Laerm;49838;51.798;10.954;2022-12-18T02:40:04;50.75;29.04;69.72;;
63692;Laerm;49838;51.798;10.954;2022-12-18T02:42:33;34.69;28.51;46.85;;
63692;Laerm;49838;51.798;10.954;2022-12-18T02:45:00;31.49;28.40;47.36;;
63692;Laerm;49838;51.798;10.954;2022-12-18T02:47:30;50.25;28.49;66.78;;
63692;Laerm;49838;51.798;10.954;2022-12-18T02:50:05;30.69;27.91;39.48;;
63692;Laerm;49838;51.798;10.954;2022-12-18T02:52:39;30.89;28.45;45.31;;
63692;Laerm;49838;51.798;10.954;2022-12-18T02:55:18;30.70;28.65;34.37;;
63692;Laerm;49838;51.798;10.954;2022-12-18T02:57:53;31.46;28.58;40.34;;
63692;Laerm;49838;51.798;10.954;2022-12-18T03:00:23;29.64;28.08;36.25;;
63692;Laerm;49838;51.798;10.954;2022-12-18T03:02:54;51.95;28.16;70.27;;
63692;Laerm;49838;51.798;10.954;2022-12-18T03:05:28;30.46;28.26;33.58;;
63692;Laerm;49838;51.798;10.954;2022-12-18T03:07:59;31.45;28.82;46.50;;
63692;Laerm;49838;51.798;10.954;2022-12-18T03:10:29;30.44;28.15;42.11;;
63692;Laerm;49838;51.798;10.954;2022-12-18T03:13:03;30.80;28.00;45.53;;
63692;Laerm;49838;51.798;10.954;2022-12-18T03:15:34;29.72;27.84;34.97;;
63692;Laerm;49838;51.798;10.954;2022-12-18T03:18:09;31.13;28.14;42.22;;
63692;Laerm;49838;51.798;10.954;2022-12-18T03:20:39;31.49;28.35;41.47;;
63692;Laerm;49838;51.798;10.954;2022-12-18T03:23:11;31.15;28.30;37.10;;
63692;Laerm;49838;51.798;10.954;2022-12-18T03:25:42;31.45;29.28;38.56;;
63692;Laerm;49838;51.798;10.954;2022-12-18T03:28:15;31.32;28.81;37.26;;
63692;Laerm;49838;51.798;10.954;2022-12-18T03:30:44;31.20;28.22;38.49;;
63692;Laerm;49838;51.798;10.954;2022-12-18T03:33:17;30.18;27.75;37.67;;
63692;Laerm;49838;51.798;10.954;2022-12-18T03:35:46;29.86;28.00;32.35;;
63692;Laerm;49838;51.798;10.954;2022-12-18T03:38:14;30.49;27.92;41.79;;
63692;Laerm;49838;51.798;10.954;2022-12-18T03:40:47;29.74;27.67;42.42;;
63692;Laerm;49838;51.798;10.954;2022-12-18T03:43:20;31.00;27.99;52.61;;
63692;Laerm;49838;51.798;10.954;2022-12-18T03:45:58;30.28;27.94;38.38;;
63692;Laerm;49838;51.798;10.954;2022-12-18T03:48:30;31.20;28.15;46.01;;
63692;Laerm;49838;51.798;10.954;2022-12-18T03:51:02;31.17;28.58;39.33;;
63692;Laerm;49838;51.798;10.954;2022-12-18T03:53:37;30.78;28.19;46.47;;
63692;Laerm;49838;51.798;10.954;2022-12-18T03:56:06;30.27;27.93;41.38;;
63692;Laerm;49838;51.798;10.954;2022-12-18T03:58:37;33.22;28.18;44.72;;
63692;Laerm;49838;51.798;10.954;2022-12-18T04:01:07;29.92;28.06;36.59;;
63692;Laerm;49838;51.798;10.954;2022-12-18T04:03:36;29.94;28.00;41.08;;
63692;Laerm;49838;51.798;10.954;2022-12-18T04:06:05;30.78;28.44;35.50;;
63692;Laerm;49838;51.798;10.954;2022-12-18T04:08:33;30.50;28.32;36.18;;
63692;Laerm;49838;51.798;10.954;2022-12-18T04:11:02;31.26;28.19;42.73;;
63692;Laerm;49838;51.798;10.954;2022-12-18T04:13:32;31.35;28.54;38.40;;
63692;Laerm;49838;51.798;10.954;2022-12-18T04:16:01;32.62;29.07;45.04;;
63692;Laerm;49838;51.798;10.954;2022-12-18T04:18:29;33.79;29.05;44.99;;
63692;Laerm;49838;51.798;10.954;2022-12-18T04:20:57;31.67;28.24;48.50;;
63692;Laerm;49838;51.798;10.954;2022-12-18T04:23:24;39.77;29.52;71.10;;
63692;Laerm;49838;51.798;10.954;2022-12-18T04:25:51;35.10;28.74;48.58;;
63692;Laerm;49838;51.798;10.954;2022-12-18T04:28:19;50.27;29.37;68.10;;
63692;Laerm;49838;51.798;10.954;2022-12-18T04:30:47;35.69;29.56;49.17;;
63692;Laerm;49838;51.798;10.954;2022-12-18T04:33:16;33.04;28.60;50.64;;
63692;Laerm;49838;51.798;10.954;2022-12-18T04:35:44;31.88;28.88;37.90;;
63692;Laerm;49838;51.798;10.954;2022-12-18T04:38:12;34.55;29.67;55.74;;
63692;Laerm;49838;51.798;10.954;2022-12-18T04:40:39;31.95;29.30;49.57;;
63692;Laerm;49838;51.798;10.954;2022-12-18T04:43:07;32.63;29.93;43.80;;
63692;Laerm;49838;51.798;10.954;2022-12-18T04:45:34;34.61;29.61;44.42;;
63692;Laerm;49838;51.798;10.954;2022-12-18T04:48:02;32.45;29.04;46.93;;
63692;Laerm;49838;51.798;10.954;2022-12-18T04:50:31;34.36;29.84;44.73;;
63692;Laerm;49838;51.798;10.954;2022-12-18T04:52:59;35.37;29.80;51.08;;
63692;Laerm;49838;51.798;10.954;2022-12-18T04:55:26;50.22;29.55;68.74;;
63692;Laerm;49838;51.798;10.954;2022-12-18T04:57:54;31.45;28.75;44.78;;
63692;Laerm;49838;51.798;10.954;2022-12-18T05:00:21;35.55;29.22;48.24;;
63692;Laerm;49838;51.798;10.954;2022-12-18T05:02:49;32.65;28.60;41.29;;
63692;Laerm;49838;51.798;10.954;2022-12-18T05:05:16;36.46;29.37;56.02;;
63692;Laerm;49838;51.798;10.954;2022-12-18T05:07:45;48.27;29.78;64.64;;
63692;Laerm;49838;51.798;10.954;2022-12-18T05:10:12;30.80;28.65;35.09;;
63692;Laerm;49838;51.798;10.954;2022-12-18T05:12:40;32.56;28.58;40.67;;
63692;Laerm;49838;51.798;10.954;2022-12-18T05:15:21;32.36;28.85;43.05;;
63692;Laerm;49838;51.798;10.954;2022-12-18T05:17:48;31.26;28.44;36.55;;
63692;Laerm;49838;51.798;10.954;2022-12-18T05:20:16;32.44;28.78;47.33;;
63692;Laerm;49838;51.798;10.954;2022-12-18T05:22:45;33.00;29.73;40.97;;
63692;Laerm;49838;51.798;10.954;2022-12-18T05:25:13;48.21;29.51;65.95;;
63692;Laerm;49838;51.798;10.954;2022-12-18T05:27:41;54.50;28.74;73.68;;
63692;Laerm;49838;51.798;10.954;2022-12-18T05:30:09;32.17;29.23;40.43;;
63692;Laerm;49838;51.798;10.954;2022-12-18T05:32:37;33.22;28.90;43.03;;
63692;Laerm;49838;51.798;10.954;2022-12-18T05:35:06;32.93;29.97;45.74;;
63692;Laerm;49838;51.798;10.954;2022-12-18T05:37:34;31.88;28.80;51.05;;
63692;Laerm;49838;51.798;10.954;2022-12-18T05:40:04;31.15;28.42;41.77;;
63692;Laerm;49838;51.798;10.954;2022-12-18T05:42:31;32.60;29.07;40.52;;
63692;Laerm;49838;51.798;10.954;2022-12-18T05:44:59;54.34;30.64;74.09;;
63692;Laerm;49838;51.798;10.954;2022-12-18T05:47:27;37.12;30.26;51.69;;
63692;Laerm;49838;51.798;10.954;2022-12-18T05:49:54;34.37;29.07;63.56;;
63692;Laerm;49838;51.798;10.954;2022-12-18T05:52:22;33.02;29.38;44.21;;
63692;Laerm;49838;51.798;10.954;2022-12-18T05:54:50;55.52;29.43;76.30;;
63692;Laerm;49838;51.798;10.954;2022-12-18T05:57:18;32.77;29.34;47.78;;
63692;Laerm;49838;51.798;10.954;2022-12-18T05:59:46;31.69;29.14;39.80;;
63692;Laerm;49838;51.798;10.954;2022-12-18T06:02:13;53.78;29.97;69.93;;
63692;Laerm;49838;51.798;10.954;2022-12-18T06:04:40;32.58;29.44;45.63;;
63692;Laerm;49838;51.798;10.954;2022-12-18T06:07:08;32.42;28.89;40.78;;
63692;Laerm;49838;51.798;10.954;2022-12-18T06:09:35;49.03;29.88;67.13;;
63692;Laerm;49838;51.798;10.954;2022-12-18T06:12:03;36.31;29.59;52.28;;
63692;Laerm;49838;51.798;10.954;2022-12-18T06:14:32;31.73;29.20;42.53;;
63692;Laerm;49838;51.798;10.954;2022-12-18T06:16:59;31.51;29.14;46.02;;
63692;Laerm;49838;51.798;10.954;2022-12-18T06:19:27;32.49;29.26;47.96;;
63692;Laerm;49838;51.798;10.954;2022-12-18T06:21:54;35.47;29.82;56.06;;
63692;Laerm;49838;51.798;10.954;2022-12-18T06:24:23;49.44;29.24;69.37;;
63692;Laerm;49838;51.798;10.954;2022-12-18T06:26:51;34.94;30.52;44.00;;
63692;Laerm;49838;51.798;10.954;2022-12-18T06:29:18;35.81;29.78;51.18;;
63692;Laerm;49838;51.798;10.954;2022-12-18T06:31:47;37.09;31.53;59.24;;
63692;Laerm;49838;51.798;10.954;2022-12-18T06:34:14;36.87;31.06;43.96;;
63692;Laerm;49838;51.798;10.954;2022-12-18T06:36:42;36.28;31.61;52.08;;
63692;Laerm;49838;51.798;10.954;2022-12-18T06:39:09;34.57;31.25;42.53;;
63692;Laerm;49838;51.798;10.954;2022-12-18T06:41:36;34.38;31.57;46.48;;
63692;Laerm;49838;51.798;10.954;2022-12-18T06:44:04;34.34;31.17;45.30;;
63692;Laerm;49838;51.798;10.954;2022-12-18T06:46:31;55.34;30.43;74.24;;
63692;Laerm;49838;51.798;10.954;2022-12-18T06:49:00;34.77;30.57;44.77;;
63692;Laerm;49838;51.798;10.954;2022-12-18T06:51:27;32.46;29.89;39.50;;
63692;Laerm;49838;51.798;10.954;2022-12-18T06:53:55;34.31;29.42;60.48;;
63692;Laerm;49838;51.798;10.954;2022-12-18T06:56:22;52.67;29.32;72.52;;
63692;Laerm;49838;51.798;10.954;2022-12-18T06:58:49;51.94;30.34;69.93;;
63692;Laerm;49838;51.798;10.954;2022-12-18T07:01:17;35.07;29.26;48.65;;
63692;Laerm;49838;51.798;10.954;2022-12-18T07:03:44;33.82;29.08;49.41;;
63692;Laerm;49838;51.798;10.954;2022-12-18T07:06:15;37.42;30.95;54.40;;
63692;Laerm;49838;51.798;10.954;2022-12-18T07:08:43;36.30;30.31;48.65;;
63692;Laerm;49838;51.798;10.954;2022-12-18T07:11:11;35.40;30.42;54.91;;
63692;Laerm;49838;51.798;10.954;2022-12-18T07:13:38;38.16;30.68;54.21;;
63692;Laerm;49838;51.798;10.954;2022-12-18T07:16:08;52.47;30.89;71.15;;
63692;Laerm;49838;51.798;10.954;2022-12-18T07:18:36;55.29;31.40;75.09;;
63692;Laerm;49838;51.798;10.954;2022-12-18T07:21:04;53.97;31.55;72.04;;
63692;Laerm;49838;51.798;10.954;2022-12-18T07:23:34;51.70;31.25;69.87;;
63692;Laerm;49838;51.798;10.954;2022-12-18T07:26:03;34.90;31.20;46.69;;
63692;Laerm;49838;51.798;10.954;2022-12-18T07:28:31;51.71;31.04;72.47;;
63692;Laerm;49838;51.798;10.954;2022-12-18T07:31:02;63.79;32.42;83.73;;
63692;Laerm;49838;51.798;10.954;2022-12-18T07:33:29;35.17;30.20;46.63;;
63692;Laerm;49838;51.798;10.954;2022-12-18T07:35:58;48.99;32.77;65.30;;
63692;Laerm;49838;51.798;10.954;2022-12-18T07:38:26;51.02;32.91;69.29;;
63692;Laerm;49838;51.798;10.954;2022-12-18T07:40:54;37.32;33.05;49.83;;
63692;Laerm;49838;51.798;10.954;2022-12-18T07:43:27;37.24;32.32;48.74;;
63692;Laerm;49838;51.798;10.954;2022-12-18T07:45:54;39.76;32.46;57.47;;
63692;Laerm;49838;51.798;10.954;2022-12-18T07:48:22;48.14;32.76;65.29;;
63692;Laerm;49838;51.798;10.954;2022-12-18T07:50:49;47.68;31.52;66.02;;
63692;Laerm;49838;51.798;10.954;2022-12-18T07:53:16;35.28;31.31;53.83;;
63692;Laerm;49838;51.798;10.954;2022-12-18T07:55:44;35.14;30.75;46.83;;
63692;Laerm;49838;51.798;10.954;2022-12-18T07:58:13;40.54;30.79;71.71;;
63692;Laerm;49838;51.798;10.954;2022-12-18T08:00:40;37.76;31.32;49.68;;
63692;Laerm;49838;51.798;10.954;2022-12-18T08:03:07;51.62;31.81;71.43;;
63692;Laerm;49838;51.798;10.954;2022-12-18T08:05:35;55.00;31.28;73.29;;
63692;Laerm;49838;51.798;10.954;2022-12-18T08:08:02;38.48;31.20;55.44;;
63692;Laerm;49838;51.798;10.954;2022-12-18T08:10:29;42.62;32.12;55.73;;
63692;Laerm;49838;51.798;10.954;2022-12-18T08:12:57;36.89;32.02;44.94;;
63692;Laerm;49838;51.798;10.954;2022-12-18T08:15:26;47.00;32.42;66.71;;
63692;Laerm;49838;51.798;10.954;2022-12-18T08:17:56;54.45;31.34;72.19;;
63692;Laerm;49838;51.798;10.954;2022-12-18T08:20:23;55.03;33.33;72.70;;
63692;Laerm;49838;51.798;10.954;2022-12-18T08:22:50;40.58;33.02;60.87;;
63692;Laerm;49838;51.798;10.954;2022-12-18T08:25:18;43.41;32.64;67.00;;
63692;Laerm;49838;51.798;10.954;2022-12-18T08:27:45;54.97;33.92;74.05;;
63692;Laerm;49838;51.798;10.954;2022-12-18T08:30:13;38.38;32.51;50.10;;
63692;Laerm;49838;51.798;10.954;2022-12-18T08:32:42;42.00;33.01;62.51;;
63692;Laerm;49838;51.798;10.954;2022-12-18T08:35:09;58.25;39.42;75.00;;
63692;Laerm;49838;51.798;10.954;2022-12-18T08:37:38;55.92;39.00;72.91;;
63692;Laerm;49838;51.798;10.954;2022-12-18T08:40:06;54.19;35.64;71.62;;
63692;Laerm;49838;51.798;10.954;2022-12-18T08:42:34;56.03;34.51;83.21;;
63692;Laerm;49838;51.798;10.954;2022-12-18T08:45:19;59.95;35.03;78.25;;
63692;Laerm;49838;51.798;10.954;2022-12-18T08:47:48;64.59;36.65;83.59;;
63692;Laerm;49838;51.798;10.954;2022-12-18T08:50:15;56.00;36.18;76.80;;
63692;Laerm;49838;51.798;10.954;2022-12-18T08:52:43;39.77;34.42;51.29;;
63692;Laerm;49838;51.798;10.954;2022-12-18T08:55:10;40.08;31.82;54.28;;
63692;Laerm;49838;51.798;10.954;2022-12-18T08:57:37;56.82;34.57;70.45;;
63692;Laerm;49838;51.798;10.954;2022-12-18T09:00:06;51.68;35.69;70.44;;
63692;Laerm;49838;51.798;10.954;2022-12-18T09:02:33;56.27;34.87;72.67;;
63692;Laerm;49838;51.798;10.954;2022-12-18T09:05:02;53.60;33.91;66.71;;
63692;Laerm;49838;51.798;10.954;2022-12-18T09:07:30;56.73;34.69;72.24;;
63692;Laerm;49838;51.798;10.954;2022-12-18T09:10:01;57.30;37.54;74.19;;
63692;Laerm;49838;51.798;10.954;2022-12-18T09:12:28;57.44;34.09;75.74;;
63692;Laerm;49838;51.798;10.954;2022-12-18T09:14:56;55.13;33.21;73.59;;
63692;Laerm;49838;51.798;10.954;2022-12-18T09:17:26;61.52;35.75;82.01;;
63692;Laerm;49838;51.798;10.954;2022-12-18T09:19:53;53.34;34.47;73.94;;
63692;Laerm;49838;51.798;10.954;2022-12-18T09:22:22;52.23;34.84;71.37;;
63692;Laerm;49838;51.798;10.954;2022-12-18T09:24:49;57.33;35.06;74.04;;
63692;Laerm;49838;51.798;10.954;2022-12-18T09:27:16;58.40;34.68;73.86;;
63692;Laerm;49838;51.798;10.954;2022-12-18T09:29:44;61.96;37.93;83.96;;
63692;Laerm;49838;51.798;10.954;2022-12-18T09:32:11;52.55;34.83;79.32;;
63692;Laerm;49838;51.798;10.954;2022-12-18T09:34:39;45.76;35.70;72.48;;
63692;Laerm;49838;51.798;10.954;2022-12-18T09:37:06;57.49;36.67;72.69;;
63692;Laerm;49838;51.798;10.954;2022-12-18T09:39:35;57.15;35.27;85.52;;
63692;Laerm;49838;51.798;10.954;2022-12-18T09:42:02;41.87;35.74;58.30;;
63692;Laerm;49838;51.798;10.954;2022-12-18T09:44:32;55.47;37.40;68.64;;
63692;Laerm;49838;51.798;10.954;2022-12-18T09:47:05;56.54;36.14;73.50;;
63692;Laerm;49838;51.798;10.954;2022-12-18T09:49:42;54.97;34.98;70.94;;
63692;Laerm;49838;51.798;10.954;2022-12-18T09:52:17;53.00;35.07;71.60;;
63692;Laerm;49838;51.798;10.954;2022-12-18T09:54:50;56.18;35.30;72.69;;
63692;Laerm;49838;51.798;10.954;2022-12-18T09:57:22;43.92;35.33;66.56;;
63692;Laerm;49838;51.798;10.954;2022-12-18T09:59:54;54.47;36.11;72.05;;
63692;Laerm;49838;51.798;10.954;2022-12-18T10:02:24;40.78;33.95;54.54;;
63692;Laerm;49838;51.798;10.954;2022-12-18T10:05:02;56.86;35.04;75.30;;
63692;Laerm;49838;51.798;10.954;2022-12-18T10:07:38;38.52;34.26;52.13;;
63692;Laerm;49838;51.798;10.954;2022-12-18T10:10:19;50.99;34.24;70.93;;
63692;Laerm;49838;51.798;10.954;2022-12-18T10:12:55;52.34;34.30;70.95;;
63692;Laerm;49838;51.798;10.954;2022-12-18T10:15:31;55.32;34.54;72.32;;
63692;Laerm;49838;51.798;10.954;2022-12-18T10:18:12;44.15;34.51;62.71;;
63692;Laerm;49838;51.798;10.954;2022-12-18T10:20:44;53.34;35.36;72.39;;
63692;Laerm;49838;51.798;10.954;2022-12-18T10:23:18;61.69;37.76;77.04;;
63692;Laerm;49838;51.798;10.954;2022-12-18T10:25:53;58.94;36.18;73.15;;
63692;Laerm;49838;51.798;10.954;2022-12-18T10:28:23;40.56;35.73;53.46;;
63692;Laerm;49838;51.798;10.954;2022-12-18T10:30:51;49.52;34.44;68.87;;
63692;Laerm;49838;51.798;10.954;2022-12-18T10:33:20;52.71;35.10;71.20;;
63692;Laerm;49838;51.798;10.954;2022-12-18T10:35:50;60.34;35.39;80.00;;
63692;Laerm;49838;51.798;10.954;2022-12-18T10:38:23;59.26;36.95;73.87;;
63692;Laerm;49838;51.798;10.954;2022-12-18T10:40:54;56.10;35.20;71.07;;
63692;Laerm;49838;51.798;10.954;2022-12-18T10:43:24;53.30;34.91;68.76;;
63692;Laerm;49838;51.798;10.954;2022-12-18T10:46:04;43.10;34.90;58.47;;
63692;Laerm;49838;51.798;10.954;2022-12-18T10:48:40;54.07;35.43;68.94;;
63692;Laerm;49838;51.798;10.954;2022-12-18T10:51:20;57.99;35.49;75.96;;
63692;Laerm;49838;51.798;10.954;2022-12-18T10:53:54;58.80;37.14;77.27;;
63692;Laerm;49838;51.798;10.954;2022-12-18T10:56:26;58.52;37.15;73.77;;
63692;Laerm;49838;51.798;10.954;2022-12-18T10:59:02;51.61;35.41;66.02;;
63692;Laerm;49838;51.798;10.954;2022-12-18T11:01:46;61.07;35.84;78.17;;
63692;Laerm;49838;51.798;10.954;2022-12-18T11:04:18;54.27;37.31;72.25;;
63692;Laerm;49838;51.798;10.954;2022-12-18T11:06:53;57.44;38.75;70.67;;
63692;Laerm;49838;51.798;10.954;2022-12-18T11:09:22;56.11;38.29;71.30;;
63692;Laerm;49838;51.798;10.954;2022-12-18T11:11:53;58.54;38.84;74.99;;
63692;Laerm;49838;51.798;10.954;2022-12-18T11:14:23;58.35;40.09;72.14;;
63692;Laerm;49838;51.798;10.954;2022-12-18T11:16:52;62.45;35.82;76.48;;
63692;Laerm;49838;51.798;10.954;2022-12-18T11:19:26;55.69;35.00;73.71;;
63692;Laerm;49838;51.798;10.954;2022-12-18T11:21:55;54.21;35.70;72.18;;
63692;Laerm;49838;51.798;10.954;2022-12-18T11:24:27;48.79;34.81;65.17;;
63692;Laerm;49838;51.798;10.954;2022-12-18T11:26:57;56.95;34.90;75.11;;
63692;Laerm;49838;51.798;10.954;2022-12-18T11:29:31;53.76;34.04;72.34;;
63692;Laerm;49838;51.798;10.954;2022-12-18T11:32:24;55.32;32.93;73.81;;
63692;Laerm;49838;51.798;10.954;2022-12-18T11:35:00;54.31;33.74;74.25;;
63692;Laerm;49838;51.798;10.954;2022-12-18T11:37:29;49.68;33.17;69.51;;
63692;Laerm;49838;51.798;10.954;2022-12-18T11:40:00;54.70;32.45;69.63;;
63692;Laerm;49838;51.798;10.954;2022-12-18T11:42:35;40.95;34.20;65.83;;
63692;Laerm;49838;51.798;10.954;2022-12-18T11:45:21;47.97;33.84;66.66;;
63692;Laerm;49838;51.798;10.954;2022-12-18T11:47:56;57.51;33.34;73.09;;
63692;Laerm;49838;51.798;10.954;2022-12-18T11:50:29;54.05;33.82;71.38;;
63692;Laerm;49838;51.798;10.954;2022-12-18T11:52:58;49.59;34.20;65.59;;
63692;Laerm;49838;51.798;10.954;2022-12-18T11:55:33;54.74;34.29;70.87;;
63692;Laerm;49838;51.798;10.954;2022-12-18T11:58:12;55.38;34.10;69.55;;
63692;Laerm;49838;51.798;10.954;2022-12-18T12:00:51;53.81;34.41;70.02;;
63692;Laerm;49838;51.798;10.954;2022-12-18T12:03:39;55.96;34.72;71.18;;
63692;Laerm;49838;51.798;10.954;2022-12-18T12:06:15;57.82;33.83;73.76;;
63692;Laerm;49838;51.798;10.954;2022-12-18T12:08:57;53.22;35.66;70.15;;
63692;Laerm;49838;51.798;10.954;2022-12-18T12:11:37;55.51;33.96;70.86;;
63692;Laerm;49838;51.798;10.954;2022-12-18T12:14:23;55.12;34.04;72.14;;
63692;Laerm;49838;51.798;10.954;2022-12-18T12:16:59;54.13;38.00;69.51;;
63692;Laerm;49838;51.798;10.954;2022-12-18T12:19:37;54.61;35.31;72.24;;
63692;Laerm;49838;51.798;10.954;2022-12-18T12:22:13;56.02;35.52;74.88;;
63692;Laerm;49838;51.798;10.954;2022-12-18T12:24:57;55.54;35.11;72.97;;
63692;Laerm;49838;51.798;10.954;2022-12-18T12:27:37;49.53;34.10;68.84;;
63692;Laerm;49838;51.798;10.954;2022-12-18T12:30:16;55.01;36.24;72.18;;
63692;Laerm;49838;51.798;10.954;2022-12-18T12:32:55;55.06;35.96;73.98;;
63692;Laerm;49838;51.798;10.954;2022-12-18T12:35:38;67.98;33.90;87.90;;
63692;Laerm;49838;51.798;10.954;2022-12-18T12:38:12;51.05;34.49;68.09;;
63692;Laerm;49838;51.798;10.954;2022-12-18T12:40:46;46.77;32.85;65.81;;
63692;Laerm;49838;51.798;10.954;2022-12-18T12:43:24;59.26;33.26;75.50;;
63692;Laerm;49838;51.798;10.954;2022-12-18T12:45:55;49.73;33.14;69.17;;
63692;Laerm;49838;51.798;10.954;2022-12-18T12:48:35;57.64;34.61;74.22;;
63692;Laerm;49838;51.798;10.954;2022-12-18T12:51:10;39.14;33.91;64.23;;
63692;Laerm;49838;51.798;10.954;2022-12-18T12:53:40;51.85;33.41;71.02;;
63692;Laerm;49838;51.798;10.954;2022-12-18T12:56:10;56.11;34.61;71.03;;
63692;Laerm;49838;51.798;10.954;2022-12-18T12:58:44;54.03;33.41;70.63;;
63692;Laerm;49838;51.798;10.954;2022-12-18T13:01:26;58.11;35.37;76.03;;
63692;Laerm;49838;51.798;10.954;2022-12-18T13:04:02;60.19;38.96;76.34;;
63692;Laerm;49838;51.798;10.954;2022-12-18T13:06:40;55.65;34.78;74.66;;
63692;Laerm;49838;51.798;10.954;2022-12-18T13:09:09;56.81;37.31;70.41;;
63692;Laerm;49838;51.798;10.954;2022-12-18T13:11:38;53.18;34.71;71.28;;
63692;Laerm;49838;51.798;10.954;2022-12-18T13:14:27;56.47;33.18;70.75;;
63692;Laerm;49838;51.798;10.954;2022-12-18T13:17:15;53.84;33.86;73.73;;
63692;Laerm;49838;51.798;10.954;2022-12-18T13:19:43;57.02;35.58;74.36;;
63692;Laerm;49838;51.798;10.954;2022-12-18T13:22:21;56.99;35.89;70.79;;
63692;Laerm;49838;51.798;10.954;2022-12-18T13:24:49;38.69;33.57;50.80;;
63692;Laerm;49838;51.798;10.954;2022-12-18T13:27:45;38.17;33.38;45.76;;
63692;Laerm;49838;51.798;10.954;2022-12-18T13:30:45;53.99;34.99;69.58;;
63692;Laerm;49838;51.798;10.954;2022-12-18T13:33:48;54.46;35.35;70.87;;
63692;Laerm;49838;51.798;10.954;2022-12-18T13:36:27;50.06;34.63;74.79;;
63692;Laerm;49838;51.798;10.954;2022-12-18T13:39:20;50.97;35.13;67.64;;
63692;Laerm;49838;51.798;10.954;2022-12-18T13:41:52;52.02;34.61;71.63;;
63692;Laerm;49838;51.798;10.954;2022-12-18T13:44:25;58.76;37.44;79.64;;
63692;Laerm;49838;51.798;10.954;2022-12-18T13:46:55;42.22;36.76;54.56;;
63692;Laerm;49838;51.798;10.954;2022-12-18T13:49:40;55.58;36.20;71.88;;
63692;Laerm;49838;51.798;10.954;2022-12-18T13:52:16;52.25;36.84;71.07;;
63692;Laerm;49838;51.798;10.954;2022-12-18T13:54:47;57.69;36.61;72.34;;